Time;durP1;ratioP1;P1;durP2;ratioP2;P2;SDS_P1;SDS_P2;PMS_P1;PMS_P2;Temp;Humidity;BMP_temperature;BMP_pressure;BME280_temperature;BME280_humidity;BME280_pressure;Samples;Min_cycle;Max_cycle;Signal;HPM_P1;HPM_P2
2023/09/07 00:01:55;;;;;;;3.35;2.28;;;;;;;19.36;82.28;95076.09;4991510;28;20198;-79
2023/09/07 00:04:22;;;;;;;3.40;2.58;;;;;;;19.32;82.75;95067.78;4991899;28;20210;-78
2023/09/07 00:06:49;;;;;;;5.45;3.28;;;;;;;19.31;83.37;95066.19;4991872;28;20209;-78
2023/09/07 00:09:18;;;;;;;3.72;2.53;;;;;;;19.25;83.20;95073.19;4991529;28;20296;-79
2023/09/07 00:11:45;;;;;;;0.70;0.70;;;;;;;19.18;83.48;95062.88;4991854;28;20571;-79
2023/09/07 00:14:12;;;;;;;0.52;0.52;;;;;;;19.22;83.43;95067.66;4991922;28;20276;-79
2023/09/07 00:16:39;;;;;;;0.68;0.50;;;;;;;19.14;84.28;95062.03;4991331;28;20260;-79
2023/09/07 00:19:07;;;;;;;1.05;0.68;;;;;;;19.04;84.77;95057.19;4991369;28;20209;-78
2023/09/07 00:21:34;;;;;;;1.05;0.85;;;;;;;19.06;85.31;95065.88;4991514;28;20221;-78
2023/09/07 00:24:05;;;;;;;0.80;0.75;;;;;;;19.06;85.63;95071.34;4991700;28;20213;-78
2023/09/07 00:26:31;;;;;;;3.30;2.65;;;;;;;19.08;85.76;95080.03;4991908;28;20277;-78
2023/09/07 00:28:58;;;;;;;0.38;0.38;;;;;;;19.03;85.84;95072.09;4994281;28;20298;-79
2023/09/07 00:31:25;;;;;;;3.50;2.08;;;;;;;19.02;86.10;95077.94;4995237;28;20233;-78
2023/09/07 00:33:52;;;;;;;2.10;1.52;;;;;;;19.02;85.98;95070.50;4995234;28;20206;-77
2023/09/07 00:36:20;;;;;;;0.77;0.77;;;;;;;19.09;85.72;95065.13;4995219;28;20209;-78
2023/09/07 00:38:47;;;;;;;0.70;0.70;;;;;;;19.05;85.79;95069.78;4995421;28;20237;-79
2023/09/07 00:41:14;;;;;;;1.05;0.65;;;;;;;19.09;86.30;95065.13;4995039;28;20206;-78
2023/09/07 00:43:41;;;;;;;0.52;0.45;;;;;;;18.99;86.64;95065.78;4995362;28;20202;-78
2023/09/07 00:46:08;;;;;;;1.67;1.33;;;;;;;18.95;87.02;95064.94;4994730;28;20241;-78
2023/09/07 00:48:36;;;;;;;0.13;0.13;;;;;;;18.91;87.37;95069.56;4995131;28;20256;-78
2023/09/07 00:51:03;;;;;;;1.30;1.17;;;;;;;18.87;87.99;95063.22;4994769;28;20217;-79
2023/09/07 00:53:31;;;;;;;1.73;0.70;;;;;;;18.82;88.39;95066.28;4995381;28;20299;-78
2023/09/07 00:55:59;;;;;;;0.20;0.20;;;;;;;18.80;88.62;95061.16;4994833;28;20209;-78
2023/09/07 00:58:27;;;;;;;0.28;0.28;;;;;;;18.81;88.90;95059.22;4994826;28;20570;-78
2023/09/07 01:00:54;;;;;;;1.10;0.88;;;;;;;18.85;88.31;95054.59;4994744;28;20213;-78
2023/09/07 01:03:21;;;;;;;0.60;0.60;;;;;;;18.92;88.08;95057.41;4994379;28;20218;-79
2023/09/07 01:05:53;;;;;;;0.63;0.55;;;;;;;18.95;87.71;95053.94;4994974;28;20614;-79
2023/09/07 01:08:25;;;;;;;0.88;0.82;;;;;;;18.96;87.87;95055.53;4995140;28;20190;-78
2023/09/07 01:10:53;;;;;;;0.43;0.43;;;;;;;18.98;87.85;95058.69;4994675;28;20271;-78
2023/09/07 01:13:20;;;;;;;0.80;0.80;;;;;;;18.98;87.52;95049.66;4994703;28;20240;-78
2023/09/07 01:15:48;;;;;;;0.60;0.60;;;;;;;19.00;87.24;95056.34;4994422;28;20201;-78
2023/09/07 01:18:17;;;;;;;1.10;1.05;;;;;;;19.02;86.57;95062.25;4994028;28;20245;-78
2023/09/07 01:20:46;;;;;;;1.52;1.27;;;;;;;19.07;86.21;95050.97;4994672;28;20682;-78
2023/09/07 01:23:14;;;;;;;1.42;1.33;;;;;;;19.07;86.47;95055.66;4994840;28;20281;-79
2023/09/07 01:25:43;;;;;;;2.58;1.50;;;;;;;19.09;85.93;95054.16;4994184;28;20213;-78
2023/09/07 01:28:10;;;;;;;0.40;0.40;;;;;;;19.09;85.71;95048.66;4994237;28;20241;-78
2023/09/07 01:30:38;;;;;;;2.35;0.70;;;;;;;19.09;85.74;95054.16;4994325;28;20296;-78
2023/09/07 01:33:05;;;;;;;0.77;0.77;;;;;;;19.06;85.67;95043.88;4994223;28;20240;-78
2023/09/07 01:35:34;;;;;;;2.78;1.58;;;;;;;19.11;85.58;95043.59;4994603;28;20209;-77
2023/09/07 01:38:01;;;;;;;0.93;0.73;;;;;;;19.07;85.90;95039.97;4993794;28;20737;-77
2023/09/07 01:40:29;;;;;;;1.20;1.05;;;;;;;19.08;86.46;95051.75;4993803;28;20216;-78
2023/09/07 01:42:56;;;;;;;0.73;0.73;;;;;;;19.08;85.86;95052.56;4994509;28;20209;-78
2023/09/07 01:45:23;;;;;;;1.30;0.90;;;;;;;19.08;85.82;95052.56;4994154;28;20214;-78
2023/09/07 01:47:50;;;;;;;1.25;1.15;;;;;;;19.07;86.08;95056.47;4993931;28;20202;-78
2023/09/07 01:50:17;;;;;;;0.85;0.70;;;;;;;19.07;85.85;95045.47;4993603;28;20213;-77
2023/09/07 01:52:46;;;;;;;3.13;0.77;;;;;;;19.04;86.22;95051.72;4993716;28;20230;-76
2023/09/07 01:55:13;;;;;;;0.35;0.35;;;;;;;19.01;86.61;95059.88;4993629;28;20217;-78
2023/09/07 01:57:41;;;;;;;0.85;0.30;;;;;;;19.07;85.97;95050.19;4993848;28;20202;-78
2023/09/07 02:00:09;;;;;;;2.13;1.30;;;;;;;19.06;86.10;95054.88;4993615;28;20236;-77
2023/09/07 02:02:36;;;;;;;0.63;0.63;;;;;;;19.06;86.18;95054.09;4993910;28;20648;-77
2023/09/07 02:05:02;;;;;;;3.50;1.52;;;;;;;19.01;86.53;95048.91;4993606;28;20646;-77
2023/09/07 02:07:29;;;;;;;1.02;1.00;;;;;;;19.03;86.18;95052.06;4993583;28;20210;-78
2023/09/07 02:09:56;;;;;;;1.33;1.13;;;;;;;19.09;85.61;95048.66;4993443;28;20216;-77
2023/09/07 02:12:23;;;;;;;1.33;1.23;;;;;;;19.06;85.86;95049.38;4992931;28;20234;-78
2023/09/07 02:14:51;;;;;;;3.08;1.35;;;;;;;19.06;86.11;95057.63;4993253;28;20198;-77
2023/09/07 02:17:18;;;;;;;1.92;1.33;;;;;;;19.00;86.61;95050.06;4992958;28;20240;-78
2023/09/07 02:19:48;;;;;;;0.73;0.60;;;;;;;18.98;86.56;95053.19;4993623;28;20223;-78
2023/09/07 02:22:15;;;;;;;1.63;0.90;;;;;;;18.97;86.96;95057.09;4993104;28;20206;-76
2023/09/07 02:24:42;;;;;;;0.93;0.93;;;;;;;18.93;87.35;95059.00;4993174;28;20217;-78
2023/09/07 02:27:09;;;;;;;0.77;0.77;;;;;;;18.88;87.44;95056.56;4992937;28;20221;-77
2023/09/07 02:29:36;;;;;;;1.00;0.93;;;;;;;18.81;88.05;95054.53;4993368;28;20205;-78
2023/09/07 02:32:04;;;;;;;1.08;0.95;;;;;;;18.79;88.27;95056.03;4993164;28;20237;-77
2023/09/07 02:34:31;;;;;;;1.90;1.65;;;;;;;18.84;87.98;95061.22;4992913;28;20225;-77
2023/09/07 02:36:58;;;;;;;1.10;1.10;;;;;;;18.85;88.06;95062.81;4993459;28;20206;-78
2023/09/07 02:39:26;;;;;;;0.80;0.80;;;;;;;18.83;88.26;95062.38;4992849;28;20642;-76
2023/09/07 02:41:52;;;;;;;0.70;0.70;;;;;;;18.83;88.46;95061.59;4993254;28;20206;-78
2023/09/07 02:44:20;;;;;;;0.35;0.35;;;;;;;18.82;88.59;95066.28;4992636;28;20206;-79
2023/09/07 02:46:47;;;;;;;1.35;1.25;;;;;;;18.77;89.04;95069.34;4993024;28;20264;-77
2023/09/07 02:49:15;;;;;;;2.83;1.98;;;;;;;18.68;89.55;95066.88;4993035;28;20252;-78
2023/09/07 02:51:42;;;;;;;1.38;1.25;;;;;;;18.69;89.70;95062.19;4991751;28;20209;-78
2023/09/07 02:54:09;;;;;;;2.65;1.40;;;;;;;18.71;89.25;95071.63;4992917;28;20232;-78
2023/09/07 02:56:36;;;;;;;0.77;0.70;;;;;;;18.66;89.81;95069.19;4992558;28;20206;-77
2023/09/07 02:59:02;;;;;;;1.05;0.93;;;;;;;18.64;90.13;95059.72;4992624;28;20216;-79
2023/09/07 03:01:30;;;;;;;0.80;0.80;;;;;;;18.65;89.67;95067.59;4992574;28;20201;-79
2023/09/07 03:03:56;;;;;;;0.40;0.40;;;;;;;18.66;90.00;95069.19;4992494;28;20212;-76
2023/09/07 03:06:24;;;;;;;1.00;1.00;;;;;;;18.66;90.15;95071.13;4992081;28;20221;-77
2023/09/07 03:08:52;;;;;;;2.40;1.90;;;;;;;18.59;91.47;95063.56;4992644;28;20547;-77
2023/09/07 03:11:19;;;;;;;3.17;2.88;;;;;;;18.54;92.15;95072.09;4992369;28;20264;-77
2023/09/07 03:13:47;;;;;;;4.47;3.47;;;;;;;18.41;92.52;95067.97;4991978;28;20229;-78
2023/09/07 03:16:14;;;;;;;6.15;2.58;;;;;;;18.35;93.39;95064.72;4991650;28;20217;-77
2023/09/07 03:18:40;;;;;;;5.20;3.13;;;;;;;18.29;94.27;95068.94;4992563;28;20190;-77
2023/09/07 03:21:07;;;;;;;3.83;2.50;;;;;;;18.25;94.43;95065.34;4992033;28;20272;-76
2023/09/07 03:23:54;;;;;;;5.20;4.15;;;;;;;18.28;94.61;95061.88;4991949;28;20209;-77
2023/09/07 03:26:21;;;;;;;1.45;1.25;;;;;;;18.26;94.67;95066.91;4990225;28;20725;-78
2023/09/07 03:28:48;;;;;;;1.70;1.58;;;;;;;18.21;95.24;95069.97;4992203;28;20216;-78
2023/09/07 03:31:15;;;;;;;2.75;2.42;;;;;;;18.21;95.03;95064.47;4992064;28;20209;-78
2023/09/07 03:33:41;;;;;;;5.80;2.72;;;;;;;18.20;95.37;95062.09;4991898;28;20230;-77
2023/09/07 03:36:09;;;;;;;3.30;2.38;;;;;;;18.18;95.42;95067.19;4991865;28;20202;-78
2023/09/07 03:38:36;;;;;;;8.15;4.00;;;;;;;18.16;95.89;95067.53;4991603;28;20209;-78
2023/09/07 03:41:04;;;;;;;3.90;2.63;;;;;;;18.15;95.92;95074.19;4992203;28;20217;-77
2023/09/07 03:43:31;;;;;;;2.30;1.90;;;;;;;18.15;96.16;95076.91;4991578;28;20209;-77
2023/09/07 03:45:58;;;;;;;3.20;1.95;;;;;;;18.15;96.33;95071.44;4991663;28;20701;-78
2023/09/07 03:48:25;;;;;;;3.85;2.50;;;;;;;18.11;96.57;95076.84;4992025;28;20588;-77
2023/09/07 03:50:52;;;;;;;4.72;3.05;;;;;;;18.09;96.79;95072.88;4991645;28;20213;-77
2023/09/07 03:53:19;;;;;;;6.25;3.15;;;;;;;18.08;97.09;95085.00;4991758;28;20252;-78
2023/09/07 03:55:46;;;;;;;3.08;2.58;;;;;;;18.07;97.23;95086.16;4991512;28;20210;-78
2023/09/07 03:58:14;;;;;;;3.83;2.42;;;;;;;18.04;97.39;95089.66;4991873;28;20205;-77
2023/09/07 04:00:41;;;;;;;6.55;3.78;;;;;;;18.03;97.42;95097.09;4991653;28;20212;-78
2023/09/07 04:03:08;;;;;;;3.80;1.77;;;;;;;18.03;97.91;95101.78;4992090;28;20586;-77
2023/09/07 04:05:38;;;;;;;4.85;2.85;;;;;;;17.99;97.51;95092.69;4991490;28;20206;-78
2023/09/07 04:08:05;;;;;;;2.17;1.92;;;;;;;17.99;98.46;95095.41;4992063;28;20197;-78
2023/09/07 04:10:32;;;;;;;3.15;1.98;;;;;;;17.95;98.83;95097.28;4991889;28;20209;-78
2023/09/07 04:12:59;;;;;;;2.60;2.05;;;;;;;17.95;97.87;95100.03;4991645;28;20329;-78
2023/09/07 04:15:27;;;;;;;2.25;1.70;;;;;;;18.00;98.01;95097.00;4991137;28;20206;-78
2023/09/07 04:17:54;;;;;;;4.65;1.55;;;;;;;17.99;98.15;95100.91;4991598;28;20245;-77
2023/09/07 04:20:23;;;;;;;1.38;1.27;;;;;;;18.01;97.87;95093.09;4991518;28;20686;-78
2023/09/07 04:22:50;;;;;;;1.42;0.75;;;;;;;18.01;98.29;95093.09;4974175;28;20233;-75
2023/09/07 04:25:17;;;;;;;0.45;0.45;;;;;;;17.93;99.39;95096.84;4991838;28;20524;-78
2023/09/07 04:27:44;;;;;;;0.43;0.43;;;;;;;17.91;99.62;95099.16;4974040;28;20206;-78
2023/09/07 04:30:11;;;;;;;0.68;0.50;;;;;;;17.89;100.00;95091.31;4991232;28;20217;-80
2023/09/07 04:32:40;;;;;;;0.32;0.32;;;;;;;17.87;100.00;95084.63;4991355;28;20233;-77
2023/09/07 04:35:07;;;;;;;0.90;0.85;;;;;;;17.93;100.00;95096.84;4991400;28;20208;-79
2023/09/07 04:37:34;;;;;;;0.30;0.30;;;;;;;17.93;99.75;95096.84;4991360;28;20198;-78
2023/09/07 04:40:02;;;;;;;0.35;0.35;;;;;;;17.94;100.00;95093.75;4991365;28;20209;-78
2023/09/07 04:42:29;;;;;;;0.50;0.43;;;;;;;17.94;99.42;95092.97;4991277;28;20237;-78
2023/09/07 04:44:56;;;;;;;0.32;0.30;;;;;;;18.02;98.08;95100.19;4991213;28;20260;-77
2023/09/07 04:47:22;;;;;;;0.30;0.30;;;;;;;18.09;97.07;95101.09;4991107;28;20216;-78
2023/09/07 04:49:51;;;;;;;0.57;0.57;;;;;;;18.16;96.44;95105.94;4991361;28;20201;-77
2023/09/07 04:52:18;;;;;;;0.50;0.50;;;;;;;18.21;95.41;95113.84;4991555;28;20641;-77
2023/09/07 04:54:45;;;;;;;0.93;0.82;;;;;;;18.25;94.74;95098.25;4991285;28;20296;-77
2023/09/07 04:57:12;;;;;;;0.30;0.30;;;;;;;18.34;93.55;95100.75;4991579;28;20210;-78
2023/09/07 04:59:43;;;;;;;1.33;1.23;;;;;;;18.41;93.63;95107.16;4991163;28;20544;-78
2023/09/07 05:02:11;;;;;;;0.65;0.65;;;;;;;18.39;92.80;95104.00;4973544;28;20252;-77
2023/09/07 05:04:38;;;;;;;0.30;0.30;;;;;;;18.50;92.73;95103.38;4991130;28;20225;-77
2023/09/07 05:07:06;;;;;;;0.40;0.40;;;;;;;18.47;91.64;95100.19;4991121;28;20209;-77
2023/09/07 05:09:33;;;;;;;0.40;0.40;;;;;;;18.47;92.46;95111.16;4990948;28;20210;-78
2023/09/07 05:12:00;;;;;;;2.65;0.50;;;;;;;18.53;92.47;95105.38;4991039;28;20209;-77
2023/09/07 05:14:27;;;;;;;1.15;0.90;;;;;;;18.51;92.17;95110.44;4992838;28;20240;-77
2023/09/07 05:17:03;;;;;;;0.20;0.20;;;;;;;18.48;91.91;95114.72;4994077;28;20789;-79
2023/09/07 05:19:30;;;;;;;0.20;0.20;;;;;;;18.56;92.02;95112.91;4994413;28;20198;-79
2023/09/07 05:21:57;;;;;;;0.43;0.43;;;;;;;18.58;91.72;95110.59;4994502;28;20205;-79
2023/09/07 05:24:26;;;;;;;2.40;1.92;;;;;;;18.55;91.43;95108.56;4994487;28;20213;-79
2023/09/07 05:26:52;;;;;;;1.95;1.40;;;;;;;18.66;92.07;95117.78;4994379;28;20217;-79
2023/09/07 05:29:20;;;;;;;0.43;0.43;;;;;;;18.65;92.43;95122.50;4994432;28;20209;-74
2023/09/07 05:31:47;;;;;;;0.20;0.20;;;;;;;18.60;92.39;95120.03;4994142;28;20208;-78
2023/09/07 05:34:14;;;;;;;0.70;0.57;;;;;;;18.62;93.18;95127.91;4994379;28;20620;-77
2023/09/07 05:36:41;;;;;;;0.17;0.17;;;;;;;18.56;93.86;95123.88;4993778;28;20205;-78
2023/09/07 05:39:07;;;;;;;0.52;0.52;;;;;;;18.63;94.06;95129.50;4994348;28;20209;-78
2023/09/07 05:41:36;;;;;;;0.30;0.30;;;;;;;18.56;94.83;95129.34;4994326;28;20558;-78
2023/09/07 05:44:02;;;;;;;0.65;0.65;;;;;;;18.56;94.86;95126.63;4994254;28;20202;-79
2023/09/07 05:46:29;;;;;;;0.38;0.38;;;;;;;18.69;93.88;95125.28;4993772;28;20205;-79
2023/09/07 05:48:56;;;;;;;0.10;0.10;;;;;;;18.75;93.10;95113.63;4994456;28;20228;-79
2023/09/07 05:51:23;;;;;;;2.30;0.65;;;;;;;18.87;92.58;95122.81;4994489;28;20210;-78
2023/09/07 05:53:50;;;;;;;0.20;0.20;;;;;;;18.82;92.28;95123.94;4994007;28;20630;-77
2023/09/07 05:56:17;;;;;;;0.10;0.10;;;;;;;18.92;92.11;95126.06;4994203;28;20205;-78
2023/09/07 05:58:45;;;;;;;0.73;0.73;;;;;;;19.24;90.70;95120.25;4993911;28;20216;-80
2023/09/07 06:01:12;;;;;;;0.38;0.38;;;;;;;19.36;88.78;95126.31;4993649;28;20677;-79
2023/09/07 06:03:41;;;;;;;0.30;0.30;;;;;;;19.47;87.90;95119.03;4994121;28;20594;-79
2023/09/07 06:06:08;;;;;;;0.65;0.50;;;;;;;20.51;83.38;95121.84;4994012;28;20260;-79
2023/09/07 06:08:34;;;;;;;0.50;0.50;;;;;;;20.86;81.15;95120.59;4976160;28;20206;-78
2023/09/07 06:11:01;;;;;;;0.28;0.25;;;;;;;21.48;78.88;95120.63;4993728;28;20689;-79
2023/09/07 06:13:28;;;;;;;0.28;0.28;;;;;;;22.92;72.58;95105.75;4976142;28;20241;-79
2023/09/07 06:15:57;;;;;;;3.55;2.08;;;;;;;23.06;71.67;95104.94;4993458;28;20220;-79
2023/09/07 06:18:24;;;;;;;4.78;2.80;;;;;;;23.83;68.86;95108.75;4993549;28;20332;-79
2023/09/07 06:20:50;;;;;;;3.80;2.13;;;;;;;24.53;65.51;95101.31;4993219;28;20264;-78
2023/09/07 06:23:17;;;;;;;3.85;2.15;;;;;;;24.64;65.09;95107.56;4994045;28;20206;-79
2023/09/07 06:25:44;;;;;;;4.10;2.25;;;;;;;24.77;63.97;95108.66;4993473;28;20582;-79
2023/09/07 06:28:11;;;;;;;3.08;1.95;;;;;;;24.72;64.03;95117.44;4993542;28;20209;-79
2023/09/07 06:30:38;;;;;;;0.73;0.55;;;;;;;24.32;64.23;95118.09;4993573;28;20647;-79
2023/09/07 06:33:06;;;;;;;0.50;0.50;;;;;;;24.30;63.24;95131.53;4993209;28;20205;-78
2023/09/07 06:35:33;;;;;;;0.60;0.60;;;;;;;23.73;65.27;95121.44;4993583;28;20223;-79
2023/09/07 06:38:00;;;;;;;2.92;2.03;;;;;;;24.60;63.18;95123.44;4993697;28;20213;-80
2023/09/07 06:40:27;;;;;;;3.15;2.22;;;;;;;25.78;59.33;95118.50;4993688;28;20212;-79
2023/09/07 06:42:57;;;;;;;0.50;0.50;;;;;;;26.23;56.89;95114.81;4993288;28;20601;-79
2023/09/07 06:45:24;;;;;;;0.17;0.17;;;;;;;26.03;57.37;95114.66;4993083;28;20201;-79
2023/09/07 06:47:51;;;;;;;1.90;1.52;;;;;;;26.10;55.63;95115.34;4992879;28;20209;-79
2023/09/07 06:50:21;;;;;;;2.33;1.35;;;;;;;25.55;56.74;95123.09;4992773;28;20586;-78
2023/09/07 06:52:48;;;;;;;0.60;0.60;;;;;;;25.52;57.13;95116.38;4992647;28;20205;-78
2023/09/07 06:55:14;;;;;;;0.20;0.20;;;;;;;26.10;55.00;95120.13;4992778;28;20225;-78
2023/09/07 06:57:41;;;;;;;0.47;0.47;;;;;;;26.08;55.57;95120.53;4992957;28;20202;-79
2023/09/07 07:00:10;;;;;;;1.73;1.40;;;;;;;26.62;53.17;95115.09;4992973;28;20216;-78
2023/09/07 07:02:37;;;;;;;1.55;1.33;;;;;;;25.67;55.76;95122.59;4992865;28;20248;-78
2023/09/07 07:05:04;;;;;;;1.65;1.17;;;;;;;25.83;55.51;95115.25;4992930;28;20209;-78
2023/09/07 07:07:34;;;;;;;2.05;1.70;;;;;;;25.34;56.17;95115.75;4992508;28;20210;-78
2023/09/07 07:10:01;;;;;;;1.20;1.08;;;;;;;25.34;56.44;95111.00;4992750;28;20202;-78
2023/09/07 07:12:28;;;;;;;2.38;1.63;;;;;;;25.83;55.84;95111.72;4992379;28;20202;-79
2023/09/07 07:14:55;;;;;;;2.00;1.80;;;;;;;25.50;56.98;95121.56;4992500;28;20241;-77
2023/09/07 07:17:22;;;;;;;2.30;1.48;;;;;;;25.55;56.81;95125.88;4992139;28;20329;-78
2023/09/07 07:19:48;;;;;;;2.80;1.95;;;;;;;25.41;57.12;95127.59;4992413;28;20237;-78
2023/09/07 07:22:15;;;;;;;2.00;1.48;;;;;;;24.87;58.04;95125.66;4992470;28;20209;-77
2023/09/07 07:24:44;;;;;;;1.60;1.48;;;;;;;24.19;60.37;95125.25;4992265;28;20209;-77
2023/09/07 07:27:11;;;;;;;2.13;1.65;;;;;;;23.53;63.18;95144.41;4992243;28;20287;-78
2023/09/07 07:29:38;;;;;;;2.42;1.98;;;;;;;23.33;64.52;95146.78;4992534;28;20300;-78
2023/09/07 07:32:05;;;;;;;2.08;1.67;;;;;;;23.04;65.54;95143.25;4992043;28;20213;-80
2023/09/07 07:34:32;;;;;;;1.65;1.45;;;;;;;22.96;65.82;95149.97;4992133;28;20225;-79
2023/09/07 07:36:59;;;;;;;2.40;1.33;;;;;;;22.92;65.92;95151.94;4991428;28;20213;-78
2023/09/07 07:39:26;;;;;;;1.85;1.65;;;;;;;23.08;66.13;95146.03;4992304;28;20209;-77
2023/09/07 07:41:54;;;;;;;2.80;1.92;;;;;;;23.03;66.01;95153.50;4991944;28;20206;-78
2023/09/07 07:44:21;;;;;;;1.80;1.60;;;;;;;23.13;65.76;95151.94;4992108;28;20204;-78
2023/09/07 07:46:48;;;;;;;2.08;1.63;;;;;;;23.19;66.68;95147.59;4991858;28;20710;-77
2023/09/07 07:49:15;;;;;;;2.17;1.67;;;;;;;23.20;66.61;95149.19;4991942;28;20317;-79
2023/09/07 07:51:44;;;;;;;4.15;1.80;;;;;;;23.01;65.84;95157.84;4991955;28;20260;-78
2023/09/07 07:54:10;;;;;;;2.75;1.85;;;;;;;22.52;67.37;95159.34;4991937;28;20248;-78
2023/09/07 07:56:37;;;;;;;2.50;1.60;;;;;;;22.53;67.38;95149.88;4992372;28;20202;-79
2023/09/07 07:59:05;;;;;;;0.63;0.63;;;;;;;22.78;66.72;95154.69;4992011;28;20550;-78
2023/09/07 08:01:32;;;;;;;2.42;1.73;;;;;;;22.83;65.77;95157.81;4991916;28;20198;-78
2023/09/07 08:03:59;;;;;;;1.13;1.02;;;;;;;22.73;66.36;95155.03;4991965;28;20565;-79
2023/09/07 08:06:26;;;;;;;0.22;0.22;;;;;;;22.88;65.83;95153.91;4992026;28;20581;-79
2023/09/07 08:08:53;;;;;;;0.82;0.82;;;;;;;22.75;65.82;95156.22;4991953;28;20213;-78
2023/09/07 08:11:21;;;;;;;0.20;0.20;;;;;;;22.70;66.59;95149.09;4992072;28;20205;-78
2023/09/07 08:13:48;;;;;;;4.43;2.13;;;;;;;22.72;66.75;95150.69;4991873;28;20308;-78
2023/09/07 08:16:17;;;;;;;2.03;1.52;;;;;;;23.03;66.68;95138.91;4991708;28;20544;-78
2023/09/07 08:18:44;;;;;;;3.38;2.30;;;;;;;23.27;65.49;95146.38;4992156;28;20222;-79
2023/09/07 08:21:12;;;;;;;1.10;0.98;;;;;;;23.42;64.94;95140.84;4991934;28;20224;-78
2023/09/07 08:23:39;;;;;;;0.50;0.50;;;;;;;23.50;64.72;95140.47;4992080;28;20209;-78
2023/09/07 08:26:06;;;;;;;0.32;0.32;;;;;;;23.92;63.35;95128.50;4991821;28;20236;-78
2023/09/07 08:28:33;;;;;;;2.08;1.67;;;;;;;24.19;61.93;95130.78;4993073;28;20248;-81
2023/09/07 08:31:00;;;;;;;2.58;1.75;;;;;;;24.38;60.95;95138.59;4991963;28;20205;-79
2023/09/07 08:33:30;;;;;;;5.53;2.10;;;;;;;24.16;59.36;95129.59;4991762;28;20248;-77
2023/09/07 08:35:59;;;;;;;0.43;0.20;;;;;;;23.63;60.54;95133.34;4973518;28;20260;-78
2023/09/07 08:38:27;;;;;;;2.45;1.50;;;;;;;23.64;60.89;95139.66;4991346;28;20248;-77
2023/09/07 08:40:55;;;;;;;1.70;1.15;;;;;;;23.98;59.29;95132.44;4991591;28;20375;-79
2023/09/07 08:43:23;;;;;;;1.83;1.30;;;;;;;23.85;58.97;95127.75;4991735;28;20248;-77
2023/09/07 08:45:59;;;;;;;2.38;1.48;;;;;;;23.74;60.35;95125.00;4991700;28;20220;-78
2023/09/07 08:48:27;;;;;;;1.67;1.30;;;;;;;24.21;59.69;95129.16;4992244;28;20293;-79
2023/09/07 08:50:57;;;;;;;2.13;1.52;;;;;;;24.46;58.55;95123.53;4994976;28;20547;-79
2023/09/07 08:53:25;;;;;;;2.50;1.50;;;;;;;23.97;58.92;95130.84;4995748;28;20201;-78
2023/09/07 08:55:52;;;;;;;2.22;1.60;;;;;;;23.75;58.10;95126.59;4995266;28;20647;-78
2023/09/07 08:58:19;;;;;;;1.38;1.20;;;;;;;24.04;55.99;95119.75;4995298;28;20273;-78
2023/09/07 09:00:46;;;;;;;1.80;1.40;;;;;;;24.03;55.71;95123.72;4994858;28;20201;-80
2023/09/07 09:03:13;;;;;;;1.67;1.35;;;;;;;24.12;56.01;95130.78;4994914;28;20586;-79
2023/09/07 09:05:41;;;;;;;1.90;1.10;;;;;;;24.61;54.73;95129.75;4995298;28;20210;-79
2023/09/07 09:08:09;;;;;;;2.05;1.40;;;;;;;24.94;54.32;95128.38;4994702;28;20292;-78
2023/09/07 09:10:39;;;;;;;1.73;1.50;;;;;;;24.51;54.32;95120.34;4994969;28;20675;-78
2023/09/07 09:13:06;;;;;;;2.30;1.48;;;;;;;24.28;55.40;95125.63;4994778;28;20693;-77
2023/09/07 09:15:33;;;;;;;1.23;1.05;;;;;;;24.31;55.84;95122.84;4994747;28;20229;-79
2023/09/07 09:18:11;;;;;;;3.00;1.50;;;;;;;24.61;54.82;95113.94;4994368;28;20774;-79
2023/09/07 09:20:39;;;;;;;2.75;1.13;;;;;;;24.36;54.07;95118.84;4995127;28;20609;-79
2023/09/07 09:23:07;;;;;;;0.88;0.85;;;;;;;24.28;53.33;95111.75;4994704;28;20320;-79
2023/09/07 09:25:35;;;;;;;1.67;1.20;;;;;;;24.42;53.51;95103.38;4995184;28;20206;-79
2023/09/07 09:28:04;;;;;;;1.58;1.17;;;;;;;24.30;53.38;95110.19;4994658;28;20232;-79
2023/09/07 09:30:31;;;;;;;0.95;0.90;;;;;;;24.18;52.92;95118.13;4995065;28;20217;-77
2023/09/07 09:32:59;;;;;;;2.55;1.25;;;;;;;24.16;53.67;95114.97;4994695;28;20213;-78
2023/09/07 09:35:27;;;;;;;1.55;1.25;;;;;;;24.49;53.27;95108.84;4994728;28;20237;-78
2023/09/07 09:37:54;;;;;;;1.27;0.95;;;;;;;24.98;53.74;95104.19;4994442;28;20213;-79
2023/09/07 09:40:22;;;;;;;1.58;1.02;;;;;;;24.89;51.17;95112.16;4994679;28;20214;-79
2023/09/07 09:42:55;;;;;;;2.13;1.33;;;;;;;24.40;52.69;95108.53;4994841;28;20267;-78
2023/09/07 09:45:23;;;;;;;1.40;1.20;;;;;;;24.13;53.10;95115.75;4994358;28;20273;-80
2023/09/07 09:47:51;;;;;;;1.63;1.52;;;;;;;24.44;52.90;95098.22;4994654;28;20553;-78
2023/09/07 09:50:20;;;;;;;1.48;1.38;;;;;;;24.70;52.20;95100.41;4994173;28;20282;-79
2023/09/07 09:52:47;;;;;;;1.40;1.20;;;;;;;24.86;52.02;95096.34;4994086;28;20206;-78
2023/09/07 09:55:14;;;;;;;1.77;1.30;;;;;;;25.03;51.28;95095.44;4993853;28;20704;-78
2023/09/07 09:57:42;;;;;;;1.20;0.90;;;;;;;25.22;49.09;95092.09;4994173;28;20213;-78
2023/09/07 10:00:21;;;;;;;1.17;1.00;;;;;;;25.35;49.51;95093.16;4993227;28;20210;-79
2023/09/07 10:02:59;;;;;;;1.83;1.33;;;;;;;25.74;49.27;95094.75;4975106;28;20301;-80
2023/09/07 10:05:28;;;;;;;2.10;1.65;;;;;;;25.62;49.44;95092.53;4974850;28;20222;-78
2023/09/07 10:08:05;;;;;;;2.00;1.02;;;;;;;25.40;49.87;95087.19;4974621;28;20248;-79
2023/09/07 10:10:36;;;;;;;1.80;1.10;;;;;;;25.69;50.12;95086.91;4974641;28;20211;-79
2023/09/07 10:13:03;;;;;;;1.30;1.20;;;;;;;25.98;48.99;95084.56;4974161;28;20222;-77
2023/09/07 10:15:32;;;;;;;1.25;1.10;;;;;;;26.21;48.73;95090.22;4974650;28;20230;-79
2023/09/07 10:18:10;;;;;;;1.20;1.10;;;;;;;25.92;49.27;95095.34;4974104;28;20608;-79
2023/09/07 10:21:02;;;;;;;1.80;1.40;;;;;;;25.89;50.17;95084.28;4974997;28;20195;-80
2023/09/07 10:23:37;;;;;;;1.83;1.30;;;;;;;26.51;48.77;95081.13;4974652;28;20647;-78
2023/09/07 10:26:05;;;;;;;1.73;1.45;;;;;;;26.66;48.11;95082.44;4974139;28;20198;-77
2023/09/07 10:28:32;;;;;;;2.10;1.13;;;;;;;26.76;47.04;95072.41;4974355;28;20460;-78
2023/09/07 10:31:03;;;;;;;2.33;1.13;;;;;;;26.41;47.16;95076.47;4973961;28;20237;-78
2023/09/07 10:33:30;;;;;;;1.30;1.13;;;;;;;26.33;47.55;95075.03;4974023;28;20616;-79
2023/09/07 10:35:57;;;;;;;1.45;1.30;;;;;;;26.43;46.43;95063.75;4973881;28;20230;-79
2023/09/07 10:38:25;;;;;;;1.42;1.27;;;;;;;26.30;47.33;95071.06;4973690;28;20556;-78
2023/09/07 10:40:58;;;;;;;1.60;1.17;;;;;;;25.58;48.43;95069.53;4974101;28;20237;-78
2023/09/07 10:43:25;;;;;;;2.53;1.00;;;;;;;25.44;48.05;95070.47;4973741;28;20261;-77
2023/09/07 10:45:52;;;;;;;2.15;1.48;;;;;;;25.58;48.75;95070.31;4973677;28;20210;-78
2023/09/07 10:48:21;;;;;;;1.15;1.05;;;;;;;25.69;47.84;95070.25;4973810;28;20210;-78
2023/09/07 10:50:48;;;;;;;1.60;0.95;;;;;;;25.47;48.03;95070.44;4973954;28;20214;-78
2023/09/07 10:53:16;;;;;;;1.27;1.17;;;;;;;25.64;48.63;95073.47;4973774;28;20210;-79
2023/09/07 10:55:44;;;;;;;2.92;1.40;;;;;;;26.09;47.19;95069.34;4973975;28;20260;-80
2023/09/07 10:58:11;;;;;;;4.85;1.52;;;;;;;25.87;46.90;95065.25;4973183;28;20202;-79
2023/09/07 11:00:38;;;;;;;1.70;1.27;;;;;;;25.46;47.59;95065.31;4975783;28;20206;-78
2023/09/07 11:03:09;;;;;;;2.08;1.33;;;;;;;25.05;48.53;95070.84;4993220;28;20305;-79
2023/09/07 11:05:38;;;;;;;1.98;1.27;;;;;;;24.89;48.60;95073.34;4993030;28;20233;-78
2023/09/07 11:08:07;;;;;;;2.40;1.40;;;;;;;24.75;50.04;95074.25;4992879;28;20205;-79
2023/09/07 11:10:35;;;;;;;1.00;0.90;;;;;;;25.24;48.74;95061.97;4992704;28;20209;-79
2023/09/07 11:13:06;;;;;;;1.40;1.10;;;;;;;25.18;49.17;95074.69;4992464;28;20667;-79
2023/09/07 11:15:35;;;;;;;1.38;1.27;;;;;;;24.75;49.42;95063.94;4992701;28;20594;-78
2023/09/07 11:18:06;;;;;;;1.98;1.10;;;;;;;24.71;49.84;95060.44;4992173;28;20636;-78
2023/09/07 11:20:34;;;;;;;1.55;1.40;;;;;;;24.47;50.62;95080.78;4992521;28;20190;-79
2023/09/07 11:23:03;;;;;;;1.38;1.20;;;;;;;24.42;51.10;95067.38;4992412;28;20210;-79
2023/09/07 11:25:35;;;;;;;1.58;1.08;;;;;;;24.57;51.02;95060.53;4992149;28;20552;-79
2023/09/07 11:28:04;;;;;;;1.02;0.90;;;;;;;24.44;51.29;95067.75;4992686;28;20220;-78
2023/09/07 11:30:31;;;;;;;2.42;1.15;;;;;;;24.18;51.42;95068.28;4992457;28;20213;-79
2023/09/07 11:33:02;;;;;;;1.73;1.23;;;;;;;23.93;52.40;95063.63;4992544;28;20205;-78
2023/09/07 11:35:29;;;;;;;1.40;1.25;;;;;;;23.93;52.40;95065.63;4992030;28;20237;-79
2023/09/07 11:37:56;;;;;;;1.50;1.30;;;;;;;24.26;51.79;95058.75;4992337;28;20279;-78